Time;durP1;ratioP1;P1;durP2;ratioP2;P2;SDS_P1;SDS_P2;PMS_P1;PMS_P2;Temp;Humidity;BMP_temperature;BMP_pressure;BME280_temperature;BME280_humidity;BME280_pressure;Samples;Min_cycle;Max_cycle;Signal;HPM_P1;HPM_P2
2023/03/29 00:00:37;;;;;;;2.25;2.15;;;;;;;;;;5016008;28;20704;-92
2023/03/29 00:03:04;;;;;;;1.70;1.63;;;;;;;;;;5016128;28;20053;-91
2023/03/29 00:05:34;;;;;;;2.10;2.00;;;;;;;;;;5016513;28;20054;-90
2023/03/29 00:08:02;;;;;;;2.13;2.03;;;;;;;;;;5016222;28;20088;-90
2023/03/29 00:10:30;;;;;;;2.60;2.50;;;;;;;;;;5015821;28;20073;-90
2023/03/29 00:12:56;;;;;;;1.73;1.63;;;;;;;;;;5016622;28;20100;-90
2023/03/29 00:15:23;;;;;;;2.45;2.33;;;;;;;;;;5016918;28;20046;-91
2023/03/29 00:17:50;;;;;;;1.98;1.88;;;;;;;;;;5016797;28;20088;-93
2023/03/29 00:20:17;;;;;;;2.55;2.38;;;;;;;;;;5016159;28;20066;-91
2023/03/29 00:22:45;;;;;;;0.95;0.95;;;;;;;;;;5016076;28;20061;-91
2023/03/29 00:25:12;;;;;;;1.67;1.58;;;;;;;;;;5016321;28;20500;-91
2023/03/29 00:27:39;;;;;;;1.98;1.88;;;;;;;;;;5016610;28;20099;-93
2023/03/29 00:30:07;;;;;;;2.33;2.17;;;;;;;;;;5016691;28;20046;-94
2023/03/29 00:32:34;;;;;;;2.50;2.40;;;;;;;;;;5016078;28;20115;-92
2023/03/29 00:35:01;;;;;;;1.35;1.35;;;;;;;;;;5016333;28;20112;-95
2023/03/29 00:37:28;;;;;;;2.70;2.60;;;;;;;;;;5027294;28;20076;-93
2023/03/29 00:39:57;;;;;;;2.15;2.05;;;;;;;;;;5035727;28;20137;-92
2023/03/29 00:42:24;;;;;;;2.08;1.98;;;;;;;;;;5035512;28;20096;-93
2023/03/29 00:44:56;;;;;;;1.23;1.23;;;;;;;;;;5035770;28;20081;-92
2023/03/29 00:47:24;;;;;;;4.82;4.63;;;;;;;;;;5035475;28;20472;-91
2023/03/29 00:49:52;;;;;;;2.20;2.08;;;;;;;;;;5035503;28;20137;-91
2023/03/29 00:52:20;;;;;;;2.58;2.47;;;;;;;;;;5035511;28;20128;-91
2023/03/29 00:54:48;;;;;;;6.45;6.22;;;;;;;;;;5035706;28;20445;-91
2023/03/29 00:57:18;;;;;;;1.48;1.40;;;;;;;;;;5035216;28;20049;-92
2023/03/29 00:59:46;;;;;;;1.55;1.45;;;;;;;;;;5035001;28;20494;-91
2023/03/29 01:02:13;;;;;;;1.58;1.48;;;;;;;;;;5034220;28;20485;-92
2023/03/29 01:04:41;;;;;;;1.70;1.60;;;;;;;;;;5035019;28;20085;-92
2023/03/29 01:07:11;;;;;;;1.35;1.25;;;;;;;;;;5035134;28;20049;-92
2023/03/29 01:09:39;;;;;;;1.25;1.25;;;;;;;;;;5034714;28;20150;-91
2023/03/29 01:12:08;;;;;;;3.15;3.05;;;;;;;;;;5034654;28;20049;-91
2023/03/29 01:14:39;;;;;;;1.67;1.60;;;;;;;;;;5035112;28;20053;-91
2023/03/29 01:17:06;;;;;;;1.20;1.20;;;;;;;;;;5034692;28;20056;-91
2023/03/29 01:19:35;;;;;;;0.98;0.98;;;;;;;;;;5034275;28;20494;-91
2023/03/29 01:22:07;;;;;;;2.08;1.98;;;;;;;;;;5034449;28;20041;-91
2023/03/29 01:24:40;;;;;;;4.10;3.88;;;;;;;;;;5034678;28;20049;-93
2023/03/29 01:27:12;;;;;;;2.00;1.90;;;;;;;;;;5034924;28;20057;-91
2023/03/29 01:29:44;;;;;;;1.80;1.70;;;;;;;;;;5035227;28;20049;-92
2023/03/29 01:32:13;;;;;;;1.50;1.48;;;;;;;;;;5034847;28;20049;-92
2023/03/29 01:34:42;;;;;;;2.10;2.00;;;;;;;;;;5035023;28;20060;-91
2023/03/29 01:37:12;;;;;;;1.92;1.83;;;;;;;;;;5034555;28;20111;-91
2023/03/29 01:39:38;;;;;;;1.67;1.60;;;;;;;;;;5034370;28;20075;-91
2023/03/29 01:42:13;;;;;;;0.90;0.88;;;;;;;;;;5034732;28;20041;-90
2023/03/29 01:44:44;;;;;;;2.45;2.35;;;;;;;;;;5034057;28;20556;-91
2023/03/29 01:47:13;;;;;;;6.90;6.60;;;;;;;;;;5034476;28;20407;-93
2023/03/29 01:49:42;;;;;;;1.20;1.20;;;;;;;;;;5034383;28;20057;-91
2023/03/29 01:52:11;;;;;;;2.05;1.95;;;;;;;;;;5034357;28;20080;-91
2023/03/29 01:54:41;;;;;;;3.30;3.10;;;;;;;;;;5015454;28;20053;-91
2023/03/29 01:57:09;;;;;;;2.25;2.15;;;;;;;;;;5018470;28;20546;-91
2023/03/29 01:59:37;;;;;;;3.03;2.83;;;;;;;;;;5034755;28;20049;-90
2023/03/29 02:02:07;;;;;;;3.55;3.38;;;;;;;;;;5034232;28;20087;-91
2023/03/29 02:04:35;;;;;;;2.42;2.33;;;;;;;;;;5034799;28;20053;-90
2023/03/29 02:07:02;;;;;;;2.03;1.92;;;;;;;;;;5034217;28;20053;-90
2023/03/29 02:09:30;;;;;;;1.33;1.20;;;;;;;;;;5033998;28;20053;-90
2023/03/29 02:11:57;;;;;;;1.75;1.65;;;;;;;;;;5034274;28;20520;-90
2023/03/29 02:14:25;;;;;;;1.23;1.20;;;;;;;;;;5036445;28;20049;-91
2023/03/29 02:16:51;;;;;;;1.80;1.70;;;;;;;;;;5037910;28;20045;-90
2023/03/29 02:19:20;;;;;;;1.83;1.73;;;;;;;;;;5037518;28;20057;-92
2023/03/29 02:21:50;;;;;;;4.78;4.57;;;;;;;;;;5038004;28;20485;-92
2023/03/29 02:24:18;;;;;;;2.30;2.20;;;;;;;;;;5037888;28;20053;-92
2023/03/29 02:26:44;;;;;;;5.90;5.68;;;;;;;;;;5037750;28;20455;-92
2023/03/29 02:29:11;;;;;;;1.40;1.40;;;;;;;;;;5038231;28;20052;-92
2023/03/29 02:31:40;;;;;;;2.28;1.92;;;;;;;;;;5037912;28;20054;-91
2023/03/29 02:34:11;;;;;;;2.63;2.53;;;;;;;;;;5038108;28;20099;-91
2023/03/29 02:36:40;;;;;;;2.30;2.20;;;;;;;;;;5038225;28;20053;-91
2023/03/29 02:39:08;;;;;;;2.42;2.33;;;;;;;;;;5038350;28;20103;-91
2023/03/29 02:41:36;;;;;;;1.45;1.35;;;;;;;;;;5037827;28;20049;-91
2023/03/29 02:44:04;;;;;;;1.30;1.30;;;;;;;;;;5021122;28;20069;-92
2023/03/29 02:46:33;;;;;;;6.63;6.35;;;;;;;;;;5018312;28;20470;-92
2023/03/29 02:49:00;;;;;;;1.30;1.30;;;;;;;;;;5018253;28;20046;-93
2023/03/29 02:51:29;;;;;;;1.88;1.77;;;;;;;;;;5017890;28;20721;-92
2023/03/29 02:54:01;;;;;;;2.17;2.08;;;;;;;;;;5017814;28;20046;-92
2023/03/29 02:56:28;;;;;;;2.40;2.20;;;;;;;;;;5017895;28;20054;-92
2023/03/29 02:58:54;;;;;;;2.33;2.22;;;;;;;;;;5017650;28;20104;-92
2023/03/29 03:01:21;;;;;;;3.15;3.05;;;;;;;;;;5017862;28;20057;-92
2023/03/29 03:03:49;;;;;;;2.08;1.98;;;;;;;;;;5017690;28;20081;-94
2023/03/29 03:06:16;;;;;;;3.92;3.78;;;;;;;;;;5018575;28;20141;-92
2023/03/29 03:08:42;;;;;;;1.55;1.45;;;;;;;;;;5018105;28;20045;-92
2023/03/29 03:11:10;;;;;;;5.88;5.68;;;;;;;;;;5019199;28;20414;-94
2023/03/29 03:13:37;;;;;;;3.25;3.05;;;;;;;;;;5031555;28;20053;-93
2023/03/29 03:16:04;;;;;;;2.08;1.92;;;;;;;;;;5039257;28;20547;-92
2023/03/29 03:18:30;;;;;;;3.28;3.17;;;;;;;;;;5038490;28;20073;-93
2023/03/29 03:20:57;;;;;;;2.53;2.42;;;;;;;;;;5038096;28;20053;-92
2023/03/29 03:23:24;;;;;;;1.58;1.48;;;;;;;;;;5037258;28;20045;-93
2023/03/29 03:25:52;;;;;;;2.15;2.05;;;;;;;;;;5036019;28;20068;-92
2023/03/29 03:28:20;;;;;;;1.58;1.50;;;;;;;;;;5037277;28;20060;-93
2023/03/29 03:30:47;;;;;;;2.30;2.20;;;;;;;;;;5037941;28;20059;-93
2023/03/29 03:33:14;;;;;;;3.95;3.75;;;;;;;;;;5036841;28;20068;-94
2023/03/29 03:35:41;;;;;;;2.15;2.05;;;;;;;;;;5037152;28;20061;-94
2023/03/29 03:38:08;;;;;;;1.92;1.83;;;;;;;;;;5038238;28;20056;-96
2023/03/29 03:40:34;;;;;;;2.10;2.00;;;;;;;;;;5038109;28;20045;-95
2023/03/29 03:43:01;;;;;;;2.25;2.15;;;;;;;;;;5037564;28;20045;-93
2023/03/29 03:45:30;;;;;;;1.40;1.30;;;;;;;;;;5037346;28;20497;-94
2023/03/29 03:47:56;;;;;;;1.30;1.30;;;;;;;;;;5037841;28;20099;-93
2023/03/29 03:50:23;;;;;;;2.90;2.70;;;;;;;;;;5022668;28;20057;-95
2023/03/29 03:52:50;;;;;;;2.35;2.25;;;;;;;;;;5021619;28;20072;-94
2023/03/29 03:55:16;;;;;;;2.20;2.10;;;;;;;;;;5037771;28;20108;-92
2023/03/29 03:57:43;;;;;;;1.70;1.60;;;;;;;;;;5036923;28;20056;-95
2023/03/29 04:00:18;;;;;;;1.05;1.05;;;;;;;;;;5036518;28;20141;-94
2023/03/29 04:02:47;;;;;;;2.17;2.08;;;;;;;;;;5036608;28;20081;-94
2023/03/29 04:05:14;;;;;;;2.08;1.98;;;;;;;;;;5037534;28;20053;-94
2023/03/29 04:07:40;;;;;;;2.30;2.20;;;;;;;;;;5037377;28;20049;-94
2023/03/29 04:10:08;;;;;;;1.25;1.25;;;;;;;;;;5037160;28;20116;-94
2023/03/29 04:12:35;;;;;;;2.25;2.15;;;;;;;;;;5037222;28;20550;-95
2023/03/29 04:15:02;;;;;;;1.70;1.60;;;;;;;;;;5036836;28;20064;-93
2023/03/29 04:17:29;;;;;;;1.63;1.52;;;;;;;;;;5037182;28;20497;-95
2023/03/29 04:19:57;;;;;;;1.42;1.33;;;;;;;;;;5036604;28;20053;-92
2023/03/29 04:22:24;;;;;;;1.70;1.60;;;;;;;;;;5037161;28;20045;-93
2023/03/29 04:24:51;;;;;;;2.35;2.25;;;;;;;;;;5037206;28;20075;-93
2023/03/29 04:27:17;;;;;;;4.43;2.45;;;;;;;;;;5037189;28;20060;-93
2023/03/29 04:29:45;;;;;;;6.03;5.80;;;;;;;;;;5039845;28;20394;-94
2023/03/29 04:32:12;;;;;;;6.22;6.00;;;;;;;;;;5039998;28;20409;-94
2023/03/29 04:34:39;;;;;;;2.67;2.58;;;;;;;;;;5036867;28;20527;-94
2023/03/29 04:37:09;;;;;;;1.88;1.77;;;;;;;;;;5037163;28;20059;-94
2023/03/29 04:39:35;;;;;;;2.65;2.45;;;;;;;;;;5037404;28;20045;-95
2023/03/29 04:42:03;;;;;;;2.30;2.20;;;;;;;;;;5038113;28;20056;-96
2023/03/29 04:44:32;;;;;;;1.90;1.80;;;;;;;;;;5038673;28;20049;-94
2023/03/29 04:46:58;;;;;;;6.45;6.15;;;;;;;;;;5037193;28;20481;-94
2023/03/29 04:49:25;;;;;;;2.40;2.30;;;;;;;;;;5036710;28;20045;-94
2023/03/29 04:51:53;;;;;;;1.95;1.85;;;;;;;;;;5039904;28;20099;-96
2023/03/29 04:54:21;;;;;;;2.38;2.28;;;;;;;;;;5037936;28;20057;-94
2023/03/29 04:56:47;;;;;;;4.55;4.35;;;;;;;;;;5036163;28;20129;-92
2023/03/29 04:59:14;;;;;;;3.13;2.92;;;;;;;;;;5035848;28;20095;-95
2023/03/29 05:01:40;;;;;;;3.40;3.20;;;;;;;;;;5033449;28;20061;-95
2023/03/29 05:04:07;;;;;;;2.58;2.47;;;;;;;;;;5036361;28;20049;-94
2023/03/29 05:06:33;;;;;;;1.85;1.75;;;;;;;;;;5035754;28;20049;-93
2023/03/29 05:09:01;;;;;;;4.93;4.63;;;;;;;;;;5035594;28;20119;-94
2023/03/29 05:11:29;;;;;;;2.75;2.63;;;;;;;;;;5034785;28;20049;-91
2023/03/29 05:13:59;;;;;;;2.88;2.53;;;;;;;;;;5035737;28;20060;-90
2023/03/29 05:16:28;;;;;;;3.28;3.17;;;;;;;;;;5036068;28;20057;-92
2023/03/29 05:18:55;;;;;;;3.80;3.58;;;;;;;;;;5033260;28;20536;-92
2023/03/29 05:21:22;;;;;;;3.38;3.15;;;;;;;;;;5030371;28;20049;-91
2023/03/29 05:23:49;;;;;;;2.08;1.98;;;;;;;;;;5032744;28;20055;-91
2023/03/29 05:26:16;;;;;;;4.47;4.20;;;;;;;;;;5035004;28;20055;-91
2023/03/29 05:28:44;;;;;;;2.75;2.63;;;;;;;;;;5035751;28;20057;-92
2023/03/29 05:31:11;;;;;;;6.25;5.65;;;;;;;;;;5035918;28;20053;-91
2023/03/29 05:33:49;;;;;;;2.45;2.22;;;;;;;;;;5039703;28;20685;-91
2023/03/29 05:36:18;;;;;;;2.83;2.72;;;;;;;;;;5044500;28;20045;-91
2023/03/29 05:38:45;;;;;;;3.85;3.63;;;;;;;;;;5046659;28;20071;-90
2023/03/29 05:41:12;;;;;;;2.05;1.95;;;;;;;;;;5043640;28;20045;-92
2023/03/29 05:43:38;;;;;;;2.13;2.03;;;;;;;;;;5042908;28;20075;-92
2023/03/29 05:46:07;;;;;;;2.95;2.67;;;;;;;;;;5045736;28;20049;-92
2023/03/29 05:48:34;;;;;;;3.00;2.90;;;;;;;;;;5039593;28;20045;-91
2023/03/29 05:51:02;;;;;;;1.77;1.67;;;;;;;;;;5043379;28;20076;-91
2023/03/29 05:53:28;;;;;;;10.20;9.60;;;;;;;;;;5040159;28;20412;-94
2023/03/29 05:55:56;;;;;;;2.53;2.30;;;;;;;;;;5037583;28;20053;-94
2023/03/29 05:58:25;;;;;;;2.28;2.17;;;;;;;;;;5037143;28;20045;-93
2023/03/29 06:00:52;;;;;;;2.42;2.33;;;;;;;;;;5038045;28;20405;-93
2023/03/29 06:03:22;;;;;;;2.40;2.30;;;;;;;;;;5040536;28;20050;-93
2023/03/29 06:05:49;;;;;;;1.83;1.73;;;;;;;;;;5040414;28;20055;-93
2023/03/29 06:08:16;;;;;;;2.70;2.58;;;;;;;;;;5042614;28;20053;-93
2023/03/29 06:10:43;;;;;;;4.30;4.00;;;;;;;;;;5038163;28;20045;-92
2023/03/29 06:13:10;;;;;;;3.90;3.58;;;;;;;;;;5038222;28;20053;-94
2023/03/29 06:15:37;;;;;;;4.07;3.88;;;;;;;;;;5043248;28;20045;-94
2023/03/29 06:18:04;;;;;;;3.28;3.08;;;;;;;;;;5039740;28;20041;-93
2023/03/29 06:20:32;;;;;;;6.20;5.80;;;;;;;;;;5038730;28;20054;-93
2023/03/29 06:22:59;;;;;;;2.58;2.47;;;;;;;;;;5040164;28;20113;-93
2023/03/29 06:25:26;;;;;;;2.25;2.15;;;;;;;;;;5042144;28;20491;-93
2023/03/29 06:27:53;;;;;;;4.00;3.75;;;;;;;;;;5038817;28;20409;-93
2023/03/29 06:30:19;;;;;;;3.58;3.38;;;;;;;;;;5039473;28;20096;-94
2023/03/29 06:32:48;;;;;;;2.03;1.92;;;;;;;;;;5040981;28;20049;-92
2023/03/29 06:35:14;;;;;;;2.00;1.90;;;;;;;;;;5039190;28;20045;-93
2023/03/29 06:37:48;;;;;;;2.70;2.60;;;;;;;;;;5035980;28;20095;-93
2023/03/29 06:40:17;;;;;;;2.15;2.05;;;;;;;;;;5035530;28;20137;-94
2023/03/29 06:42:44;;;;;;;2.38;2.28;;;;;;;;;;5035635;28;20056;-94
2023/03/29 06:45:11;;;;;;;1.75;1.65;;;;;;;;;;5038604;28;20049;-94
2023/03/29 06:47:38;;;;;;;2.88;2.78;;;;;;;;;;5025876;28;20046;-93
2023/03/29 06:50:05;;;;;;;1.83;1.73;;;;;;;;;;5028986;28;20042;-94
2023/03/29 06:52:32;;;;;;;4.40;4.20;;;;;;;;;;5039521;28;20057;-94
2023/03/29 06:55:00;;;;;;;1.67;1.58;;;;;;;;;;5038431;28;20048;-94
2023/03/29 06:57:27;;;;;;;3.65;3.45;;;;;;;;;;5035372;28;20050;-95
2023/03/29 06:59:53;;;;;;;4.38;3.60;;;;;;;;;;5036908;28;20041;-93
2023/03/29 07:02:21;;;;;;;3.10;2.90;;;;;;;;;;5042188;28;20115;-95
2023/03/29 07:04:48;;;;;;;3.85;3.55;;;;;;;;;;5041209;28;20048;-94
2023/03/29 07:07:19;;;;;;;2.00;1.88;;;;;;;;;;5041251;28;20497;-96
2023/03/29 07:09:53;;;;;;;1.90;1.80;;;;;;;;;;5043756;28;20464;-96
2023/03/29 07:12:22;;;;;;;1.90;1.80;;;;;;;;;;5042753;28;20084;-95
2023/03/29 07:14:48;;;;;;;9.60;9.20;;;;;;;;;;5039791;28;20405;-95
2023/03/29 07:17:15;;;;;;;3.50;3.30;;;;;;;;;;5039364;28;20056;-94
2023/03/29 07:19:42;;;;;;;4.25;3.40;;;;;;;;;;5038221;28;20115;-93
2023/03/29 07:22:09;;;;;;;2.58;2.47;;;;;;;;;;5040666;28;20041;-94
2023/03/29 07:24:36;;;;;;;2.53;2.42;;;;;;;;;;5045357;28;20080;-93
2023/03/29 07:27:03;;;;;;;9.68;9.27;;;;;;;;;;5039169;28;20428;-94
2023/03/29 07:29:31;;;;;;;2.90;2.80;;;;;;;;;;5045232;28;20105;-95
2023/03/29 07:31:57;;;;;;;2.22;2.13;;;;;;;;;;5041067;28;20481;-94
2023/03/29 07:34:24;;;;;;;2.72;2.63;;;;;;;;;;5042726;28;20045;-93
2023/03/29 07:36:50;;;;;;;3.78;3.58;;;;;;;;;;5038628;28;20057;-93
2023/03/29 07:39:17;;;;;;;4.57;4.28;;;;;;;;;;5037556;28;20053;-93
2023/03/29 07:41:44;;;;;;;8.02;7.72;;;;;;;;;;5040110;28;20433;-94
2023/03/29 07:44:10;;;;;;;3.53;3.33;;;;;;;;;;5037604;28;20053;-93
2023/03/29 07:46:38;;;;;;;2.97;2.70;;;;;;;;;;5038476;28;20053;-93
2023/03/29 07:49:07;;;;;;;1.92;1.83;;;;;;;;;;5037867;28;20064;-94
2023/03/29 07:51:35;;;;;;;2.15;2.05;;;;;;;;;;5040579;28;20053;-94
2023/03/29 07:54:02;;;;;;;4.10;2.97;;;;;;;;;;5038205;28;20084;-93
2023/03/29 07:56:29;;;;;;;2.95;2.75;;;;;;;;;;5038749;28;20134;-92
2023/03/29 07:58:56;;;;;;;3.72;3.47;;;;;;;;;;5036895;28;20052;-93
2023/03/29 08:01:22;;;;;;;4.13;3.92;;;;;;;;;;5021216;28;20065;-95
2023/03/29 08:03:50;;;;;;;2.70;2.60;;;;;;;;;;5037838;28;20091;-93
2023/03/29 08:06:17;;;;;;;4.28;4.07;;;;;;;;;;5043069;28;20105;-93
2023/03/29 08:08:44;;;;;;;2.67;2.58;;;;;;;;;;5038060;28;20053;-93
2023/03/29 08:11:10;;;;;;;6.82;6.53;;;;;;;;;;5038688;28;20432;-94
2023/03/29 08:13:37;;;;;;;3.10;2.90;;;;;;;;;;5038985;28;20046;-92
2023/03/29 08:16:04;;;;;;;9.45;9.05;;;;;;;;;;5040634;28;20394;-95
2023/03/29 08:18:31;;;;;;;4.10;3.90;;;;;;;;;;5037855;28;20568;-95
2023/03/29 08:20:59;;;;;;;3.95;3.75;;;;;;;;;;5024835;28;20103;-95
2023/03/29 08:23:26;;;;;;;4.03;3.88;;;;;;;;;;5019289;28;20046;-95
2023/03/29 08:25:52;;;;;;;3.50;3.30;;;;;;;;;;5030885;28;20481;-95
2023/03/29 08:28:19;;;;;;;4.38;4.15;;;;;;;;;;5036940;28;20049;-93
2023/03/29 08:31:00;;;;;;;6.60;6.35;;;;;;;;;;5036469;28;20050;-95
2023/03/29 08:33:27;;;;;;;3.08;2.88;;;;;;;;;;5037859;28;20050;-92
2023/03/29 08:35:53;;;;;;;3.78;3.58;;;;;;;;;;5036049;28;20099;-94
2023/03/29 08:38:22;;;;;;;2.78;2.65;;;;;;;;;;5037650;28;20068;-95
2023/03/29 08:40:49;;;;;;;3.38;3.17;;;;;;;;;;5036877;28;20041;-94
2023/03/29 08:43:21;;;;;;;2.80;2.70;;;;;;;;;;5036633;28;20196;-93
2023/03/29 08:45:54;;;;;;;3.85;3.65;;;;;;;;;;5036982;28;20517;-94
2023/03/29 08:48:25;;;;;;;4.60;4.40;;;;;;;;;;5041803;28;20053;-95
2023/03/29 08:50:53;;;;;;;3.92;3.72;;;;;;;;;;5041178;28;20049;-95
2023/03/29 08:53:22;;;;;;;4.15;3.95;;;;;;;;;;5044038;28;20485;-95
2023/03/29 08:55:52;;;;;;;5.53;5.22;;;;;;;;;;5037148;28;20107;-94
2023/03/29 08:58:23;;;;;;;3.92;3.72;;;;;;;;;;5036855;28;20053;-95
2023/03/29 09:00:51;;;;;;;3.75;3.55;;;;;;;;;;5017041;28;20057;-93
2023/03/29 09:03:21;;;;;;;3.00;2.90;;;;;;;;;;5017130;28;20050;-94
2023/03/29 09:05:48;;;;;;;9.27;8.82;;;;;;;;;;5019272;28;20417;-92
2023/03/29 09:08:16;;;;;;;3.67;3.47;;;;;;;;;;5036555;28;20060;-92
2023/03/29 09:10:45;;;;;;;4.85;4.57;;;;;;;;;;5037623;28;20050;-93
2023/03/29 09:13:20;;;;;;;5.53;5.05;;;;;;;;;;5035693;28;20049;-92
2023/03/29 09:15:51;;;;;;;5.40;4.35;;;;;;;;;;5035840;28;20068;-91
2023/03/29 09:18:22;;;;;;;4.15;3.95;;;;;;;;;;5035395;28;20085;-94
2023/03/29 09:20:53;;;;;;;3.17;3.00;;;;;;;;;;5036530;28;20076;-93
2023/03/29 09:23:26;;;;;;;3.47;3.28;;;;;;;;;;5035233;28;20559;-93
2023/03/29 09:25:55;;;;;;;3.72;3.60;;;;;;;;;;5035461;28;20053;-95
2023/03/29 09:28:28;;;;;;;4.35;3.65;;;;;;;;;;5036719;28;20049;-95
2023/03/29 09:30:57;;;;;;;4.43;4.22;;;;;;;;;;5042617;28;20049;-95
2023/03/29 09:33:25;;;;;;;4.80;4.60;;;;;;;;;;5019291;28;20058;-94
2023/03/29 09:35:53;;;;;;;11.48;10.98;;;;;;;;;;5015334;28;20441;-93
2023/03/29 09:38:21;;;;;;;5.35;5.07;;;;;;;;;;5015133;28;20489;-92
2023/03/29 09:40:50;;;;;;;4.07;3.78;;;;;;;;;;5015453;28;20060;-92
2023/03/29 09:43:18;;;;;;;4.72;4.53;;;;;;;;;;5027288;28;20060;-93
2023/03/29 09:45:51;;;;;;;4.70;4.50;;;;;;;;;;5023577;28;20137;-93
2023/03/29 09:48:18;;;;;;;6.85;6.53;;;;;;;;;;5035049;28;20042;-92
2023/03/29 09:50:46;;;;;;;4.65;4.45;;;;;;;;;;5034642;28;20056;-93
2023/03/29 09:53:14;;;;;;;11.57;11.07;;;;;;;;;;5034797;28;20460;-94
2023/03/29 09:55:40;;;;;;;6.13;5.82;;;;;;;;;;5034531;28;20086;-93
2023/03/29 09:58:12;;;;;;;4.68;4.35;;;;;;;;;;5034421;28;20072;-92
2023/03/29 10:00:39;;;;;;;4.40;4.20;;;;;;;;;;5034285;28;20041;-93
2023/03/29 10:03:07;;;;;;;9.40;9.00;;;;;;;;;;5034700;28;20461;-92
2023/03/29 10:05:35;;;;;;;5.07;4.88;;;;;;;;;;5044248;28;20053;-93
2023/03/29 10:08:10;;;;;;;4.38;4.18;;;;;;;;;;5056066;28;20079;-93
2023/03/29 10:10:37;;;;;;;5.05;4.75;;;;;;;;;;5035670;28;20046;-94
2023/03/29 10:13:04;;;;;;;4.82;4.63;;;;;;;;;;5035155;28;20390;-94
2023/03/29 10:15:31;;;;;;;5.75;5.45;;;;;;;;;;5038373;28;20054;-94
2023/03/29 10:17:58;;;;;;;10.77;10.38;;;;;;;;;;5041578;28;20557;-94
2023/03/29 10:20:27;;;;;;;7.75;7.40;;;;;;;;;;5035010;28;20108;-95
2023/03/29 10:22:55;;;;;;;5.47;5.18;;;;;;;;;;5034452;28;20099;-94
2023/03/29 10:25:25;;;;;;;4.18;3.97;;;;;;;;;;5034107;28;20131;-93
2023/03/29 10:27:52;;;;;;;7.50;7.20;;;;;;;;;;5032796;28;20049;-94
2023/03/29 10:30:21;;;;;;;14.43;13.90;;;;;;;;;;5035022;28;20437;-94
2023/03/29 10:32:52;;;;;;;5.40;5.05;;;;;;;;;;5034390;28;20085;-94
2023/03/29 10:35:21;;;;;;;4.28;4.07;;;;;;;;;;5038368;28;20076;-95
2023/03/29 10:37:51;;;;;;;5.43;5.22;;;;;;;;;;5038615;28;20140;-93
2023/03/29 10:40:20;;;;;;;4.50;4.30;;;;;;;;;;5039128;28;20061;-93
2023/03/29 10:42:48;;;;;;;5.63;5.43;;;;;;;;;;5037883;28;20045;-94
2023/03/29 10:45:24;;;;;;;4.00;3.83;;;;;;;;;;5038023;28;20065;-94
2023/03/29 10:47:51;;;;;;;5.63;5.30;;;;;;;;;;5039662;28;20107;-96
2023/03/29 10:50:17;;;;;;;5.65;5.45;;;;;;;;;;5038155;28;20493;-93
2023/03/29 10:52:44;;;;;;;4.63;4.43;;;;;;;;;;5036162;28;20049;-93
2023/03/29 10:55:14;;;;;;;4.32;4.13;;;;;;;;;;5039531;28;20515;-93
2023/03/29 10:57:46;;;;;;;5.38;5.15;;;;;;;;;;5018475;28;20100;-94
2023/03/29 11:00:16;;;;;;;10.52;9.55;;;;;;;;;;5018439;28;20501;-93
2023/03/29 11:02:57;;;;;;;5.85;5.25;;;;;;;;;;5018941;28;20057;-95
2023/03/29 11:05:30;;;;;;;4.80;4.60;;;;;;;;;;5020006;28;20096;-94
2023/03/29 11:08:05;;;;;;;9.75;9.35;;;;;;;;;;5037823;28;20481;-94
2023/03/29 11:10:37;;;;;;;17.58;16.40;;;;;;;;;;5037924;28;20633;-93
2023/03/29 11:13:08;;;;;;;6.72;6.43;;;;;;;;;;5039776;28;20105;-94
2023/03/29 11:15:34;;;;;;;;;;;;;;;;;;5040401;28;20041;-93
2023/03/29 11:18:06;;;;;;;6.25;5.95;;;;;;;;;;5036619;28;19920;-95
2023/03/29 11:20:39;;;;;;;6.93;6.63;;;;;;;;;;5037697;28;20065;-95
2023/03/29 11:23:11;;;;;;;6.05;5.82;;;;;;;;;;5038359;28;20049;-95
2023/03/29 11:25:44;;;;;;;7.80;7.38;;;;;;;;;;5037193;28;20041;-95
2023/03/29 11:28:13;;;;;;;4.75;4.55;;;;;;;;;;5037976;28;20041;-94
2023/03/29 11:30:42;;;;;;;4.78;4.57;;;;;;;;;;5038477;28;20049;-95
2023/03/29 11:33:14;;;;;;;9.60;7.97;;;;;;;;;;5037640;28;20132;-95
2023/03/29 11:35:51;;;;;;;6.65;6.35;;;;;;;;;;5037349;28;20056;-94
2023/03/29 11:38:23;;;;;;;5.72;5.43;;;;;;;;;;5037359;28;20049;-94
2023/03/29 11:41:01;;;;;;;4.30;4.10;;;;;;;;;;5037355;28;20049;-96
2023/03/29 11:43:30;;;;;;;5.25;4.95;;;;;;;;;;5037499;28;20069;-95
2023/03/29 11:46:00;;;;;;;7.00;6.70;;;;;;;;;;5035185;28;20046;-94
2023/03/29 11:48:29;;;;;;;6.03;5.82;;;;;;;;;;5036117;28;20053;-95
2023/03/29 11:50:58;;;;;;;6.22;5.93;;;;;;;;;;5037388;28;20084;-96
2023/03/29 11:53:26;;;;;;;6.55;6.28;;;;;;;;;;5037068;28;20053;-96
2023/03/29 11:55:54;;;;;;;6.10;5.88;;;;;;;;;;5038412;28;20049;-95
2023/03/29 11:58:27;;;;;;;7.50;7.20;;;;;;;;;;5037870;28;20551;-94
2023/03/29 12:00:55;;;;;;;6.00;5.80;;;;;;;;;;5039178;28;20046;-95
2023/03/29 12:03:31;;;;;;;4.80;4.60;;;;;;;;;;5038016;28;20048;-94
2023/03/29 12:06:01;;;;;;;9.05;8.68;;;;;;;;;;5037643;28;20132;-96
2023/03/29 12:08:30;;;;;;;6.88;6.40;;;;;;;;;;5017905;28;20057;-96
2023/03/29 12:11:01;;;;;;;6.10;5.80;;;;;;;;;;5036465;28;20057;-96
2023/03/29 12:13:31;;;;;;;6.38;6.15;;;;;;;;;;5037012;28;20045;-95
2023/03/29 12:16:00;;;;;;;8.77;8.48;;;;;;;;;;5038979;28;20056;-95
2023/03/29 12:18:28;;;;;;;9.35;8.95;;;;;;;;;;5038065;28;20053;-94
2023/03/29 12:20:57;;;;;;;9.13;8.77;;;;;;;;;;5038611;28;20065;-95
2023/03/29 12:23:24;;;;;;;6.82;6.50;;;;;;;;;;5038239;28;20116;-96
2023/03/29 12:25:53;;;;;;;7.10;6.70;;;;;;;;;;5039128;28;20052;-95
2023/03/29 12:28:25;;;;;;;8.57;8.18;;;;;;;;;;5039257;28;20132;-95
2023/03/29 12:30:58;;;;;;;6.93;6.63;;;;;;;;;;5039442;28;20041;-94
2023/03/29 12:33:39;;;;;;;7.25;6.60;;;;;;;;;;5033871;28;20041;-93
2023/03/29 12:36:13;;;;;;;6.50;6.20;;;;;;;;;;5011026;28;20050;-95
2023/03/29 12:38:41;;;;;;;21.75;20.95;;;;;;;;;;5037062;28;20398;-95
2023/03/29 12:41:11;;;;;;;7.97;7.68;;;;;;;;;;5036458;28;20477;-96
2023/03/29 12:43:39;;;;;;;8.20;7.57;;;;;;;;;;5037172;28;20053;-94
2023/03/29 12:46:10;;;;;;;7.82;7.53;;;;;;;;;;5037272;28;20045;-95
2023/03/29 12:48:37;;;;;;;6.80;6.50;;;;;;;;;;5037265;28;20057;-94
2023/03/29 12:51:05;;;;;;;5.28;5.07;;;;;;;;;;5036382;28;20052;-94
2023/03/29 12:53:34;;;;;;;9.98;9.57;;;;;;;;;;5037019;28;20053;-94
2023/03/29 12:56:10;;;;;;;6.55;6.25;;;;;;;;;;5039278;28;20045;-94
2023/03/29 12:58:41;;;;;;;7.28;6.97;;;;;;;;;;5037825;28;20046;-93
2023/03/29 13:01:22;;;;;;;7.10;6.80;;;;;;;;;;5039262;28;20053;-93
2023/03/29 13:03:50;;;;;;;8.13;7.80;;;;;;;;;;5038841;28;20048;-94
2023/03/29 13:06:27;;;;;;;5.82;5.60;;;;;;;;;;5038333;28;20508;-92
2023/03/29 13:08:53;;;;;;;;;;;;;;;;;;5042886;28;20103;-93
2023/03/29 13:11:26;;;;;;;6.47;6.18;;;;;;;;;;5048478;28;19921;-93
2023/03/29 13:13:53;;;;;;;5.93;5.63;;;;;;;;;;5048223;28;20045;-93
2023/03/29 13:16:28;;;;;;;7.10;6.80;;;;;;;;;;5049868;28;20063;-91
2023/03/29 13:19:00;;;;;;;6.70;6.40;;;;;;;;;;5036889;28;21096;-93
2023/03/29 13:21:32;;;;;;;6.78;6.47;;;;;;;;;;5037508;28;20053;-94
2023/03/29 13:24:04;;;;;;;6.78;6.47;;;;;;;;;;5037106;28;20042;-92
2023/03/29 13:26:41;;;;;;;4.95;4.75;;;;;;;;;;5037541;28;20041;-94
2023/03/29 13:29:21;;;;;;;7.22;6.88;;;;;;;;;;5037944;28;20049;-93
2023/03/29 13:31:56;;;;;;;7.97;7.30;;;;;;;;;;5035729;28;20127;-93
2023/03/29 13:34:29;;;;;;;6.10;5.88;;;;;;;;;;5038090;28;20057;-96
2023/03/29 13:37:02;;;;;;;5.18;4.88;;;;;;;;;;5037316;28;20136;-93
2023/03/29 13:39:30;;;;;;;6.93;6.65;;;;;;;;;;5036100;28;20050;-93
2023/03/29 13:42:07;;;;;;;5.85;5.65;;;;;;;;;;5036314;28;20045;-93
2023/03/29 13:44:40;;;;;;;6.18;5.88;;;;;;;;;;5034949;28;20099;-92
2023/03/29 13:47:16;;;;;;;5.80;5.60;;;;;;;;;;5034356;28;20049;-93
2023/03/29 13:49:43;;;;;;;4.45;4.25;;;;;;;;;;5030695;28;20100;-94
2023/03/29 13:52:15;;;;;;;6.28;6.00;;;;;;;;;;5034505;28;20055;-93
2023/03/29 13:54:44;;;;;;;4.88;4.68;;;;;;;;;;5034589;28;20390;-94
2023/03/29 13:57:14;;;;;;;16.08;15.48;;;;;;;;;;5034332;28;20643;-93
2023/03/29 13:59:44;;;;;;;5.25;5.05;;;;;;;;;;5034219;28;20056;-91
2023/03/29 14:02:15;;;;;;;7.68;7.38;;;;;;;;;;5034683;28;20053;-93
2023/03/29 14:04:41;;;;;;;;;;;;;;;;;;5035068;28;20049;-94
2023/03/29 14:07:09;;;;;;;6.18;5.63;;;;;;;;;;5034191;28;19971;-93
2023/03/29 14:09:38;;;;;;;5.25;5.03;;;;;;;;;;5035249;28;20049;-93
2023/03/29 14:12:06;;;;;;;7.03;6.72;;;;;;;;;;5038594;28;20037;-95
2023/03/29 14:14:33;;;;;;;5.10;4.90;;;;;;;;;;5038515;28;20055;-94
2023/03/29 14:17:00;;;;;;;6.30;6.05;;;;;;;;;;5038232;28;20061;-95
2023/03/29 14:19:30;;;;;;;4.38;4.18;;;;;;;;;;5037114;28;20053;-92
2023/03/29 14:21:57;;;;;;;6.47;6.18;;;;;;;;;;5037652;28;20054;-93
2023/03/29 14:24:25;;;;;;;4.45;4.25;;;;;;;;;;5038529;28;20053;-94
2023/03/29 14:26:53;;;;;;;5.13;4.93;;;;;;;;;;5037830;28;20132;-93
2023/03/29 14:29:19;;;;;;;5.55;5.35;;;;;;;;;;5037950;28;20508;-93
2023/03/29 14:31:46;;;;;;;7.10;6.80;;;;;;;;;;5037948;28;20107;-92
2023/03/29 14:34:13;;;;;;;6.65;6.35;;;;;;;;;;5038822;28;20057;-95
2023/03/29 14:36:42;;;;;;;6.65;6.35;;;;;;;;;;5038530;28;20057;-91
2023/03/29 14:39:12;;;;;;;16.85;16.25;;;;;;;;;;5038831;28;20418;-92
2023/03/29 14:41:39;;;;;;;9.32;8.93;;;;;;;;;;5040856;28;20056;-92
2023/03/29 14:44:06;;;;;;;9.15;7.53;;;;;;;;;;5050835;28;20080;-93
2023/03/29 14:46:33;;;;;;;18.63;17.92;;;;;;;;;;5038767;28;20502;-92
2023/03/29 14:49:00;;;;;;;5.97;5.68;;;;;;;;;;5038098;28;20529;-94
2023/03/29 14:51:29;;;;;;;9.10;8.73;;;;;;;;;;5040077;28;20049;-94